Time;durP1;ratioP1;P1;durP2;ratioP2;P2;SDS_P1;SDS_P2;PMS_P1;PMS_P2;Temp;Humidity;BMP_temperature;BMP_pressure;BME280_temperature;BME280_humidity;BME280_pressure;Samples;Min_cycle;Max_cycle;Signal;HPM_P1;HPM_P2
2024/03/10 00:01:59;;;;;;;4.05;2.55;;;;;;;10.03;100.00;96770.09;5045165;28;20124;-61
2024/03/10 00:04:25;;;;;;;4.40;2.60;;;;;;;9.97;100.00;96761.09;5031767;28;20029;-61
2024/03/10 00:06:51;;;;;;;5.55;3.03;;;;;;;10.02;100.00;96761.16;5049755;28;20029;-61
2024/03/10 00:09:16;;;;;;;6.97;2.90;;;;;;;9.98;100.00;96761.91;5047179;28;20024;-61
2024/03/10 00:11:43;;;;;;;5.80;2.88;;;;;;;9.82;100.00;96767.13;5044699;28;20029;-61
2024/03/10 00:14:08;;;;;;;6.38;3.13;;;;;;;9.68;100.00;96765.00;5044214;28;20404;-62
2024/03/10 00:16:33;;;;;;;6.28;3.20;;;;;;;9.69;100.00;96755.84;5051275;28;20043;-62
2024/03/10 00:18:59;;;;;;;5.18;2.95;;;;;;;9.60;100.00;96766.25;5046510;28;20033;-62
2024/03/10 00:21:25;;;;;;;3.95;2.50;;;;;;;9.51;100.00;96759.63;5047929;28;20028;-62
2024/03/10 00:23:50;;;;;;;5.80;3.00;;;;;;;9.47;100.00;96761.19;5041740;28;20461;-61
2024/03/10 00:26:16;;;;;;;6.57;3.08;;;;;;;9.36;100.00;96758.34;5045792;28;20025;-61
2024/03/10 00:28:41;;;;;;;5.03;2.60;;;;;;;9.37;100.00;96770.75;5040383;28;20021;-61
2024/03/10 00:31:09;;;;;;;6.38;3.22;;;;;;;9.37;100.00;96767.25;5044215;28;20021;-61
2024/03/10 00:33:37;;;;;;;4.25;2.63;;;;;;;9.31;100.00;96760.13;5028475;28;20121;-62
2024/03/10 00:36:03;;;;;;;6.88;2.78;;;;;;;9.26;100.00;96757.34;5020315;28;20412;-61
2024/03/10 00:38:29;;;;;;;5.20;2.65;;;;;;;9.24;100.00;96756.78;5039818;28;20435;-61
2024/03/10 00:40:55;;;;;;;6.38;2.97;;;;;;;9.26;100.00;96755.47;5044550;28;20028;-61
2024/03/10 00:43:20;;;;;;;6.40;3.30;;;;;;;9.39;100.00;96751.63;5047204;28;20021;-61
2024/03/10 00:45:46;;;;;;;5.63;2.90;;;;;;;9.36;100.00;96747.53;5033864;28;20029;-62
2024/03/10 00:48:11;;;;;;;5.65;3.20;;;;;;;9.37;100.00;96765.34;5040991;28;20052;-61
2024/03/10 00:50:37;;;;;;;7.45;3.35;;;;;;;9.34;100.00;96749.66;5037935;28;20048;-61
2024/03/10 00:53:02;;;;;;;5.70;3.65;;;;;;;9.34;100.00;96754.25;5040965;28;20044;-61
2024/03/10 00:55:29;;;;;;;5.22;2.97;;;;;;;9.35;100.00;96755.88;5043657;28;20029;-62
2024/03/10 00:57:54;;;;;;;9.93;2.97;;;;;;;9.26;100.00;96741.97;5047117;28;20066;-61
2024/03/10 01:00:20;;;;;;;5.30;3.00;;;;;;;9.39;100.00;96744.34;5041384;28;20017;-61
2024/03/10 01:02:50;;;;;;;5.88;3.00;;;;;;;9.42;100.00;96743.84;5047866;28;20032;-62
2024/03/10 01:05:16;;;;;;;8.05;3.22;;;;;;;9.38;100.00;96748.13;5037834;28;20041;-61
2024/03/10 01:07:41;;;;;;;6.55;3.25;;;;;;;9.19;100.00;96752.09;5047188;28;20033;-61
2024/03/10 01:10:09;;;;;;;5.50;3.10;;;;;;;9.14;100.00;96744.78;5040663;28;20025;-62
2024/03/10 01:12:34;;;;;;;6.57;3.28;;;;;;;9.08;100.00;96740.34;5047639;28;20033;-61
2024/03/10 01:14:59;;;;;;;5.65;2.80;;;;;;;9.15;100.00;96730.22;5038814;28;20013;-62
2024/03/10 01:17:25;;;;;;;5.63;2.67;;;;;;;9.09;100.00;96746.53;5045438;28;20100;-61
2024/03/10 01:19:51;;;;;;;6.82;3.08;;;;;;;8.99;100.00;96749.91;5044485;28;20052;-62
2024/03/10 01:22:17;;;;;;;5.88;2.90;;;;;;;9.09;100.00;96744.69;5050123;28;20033;-62
2024/03/10 01:24:43;;;;;;;4.35;2.58;;;;;;;9.00;100.00;96735.34;5045686;28;20360;-61
2024/03/10 01:27:09;;;;;;;6.57;2.83;;;;;;;8.91;100.00;96739.53;5046209;28;20028;-62
2024/03/10 01:29:34;;;;;;;4.18;2.58;;;;;;;8.83;100.00;96743.44;5039465;28;20040;-62
2024/03/10 01:32:00;;;;;;;5.45;2.47;;;;;;;8.86;100.00;96739.44;5042593;28;20043;-62
2024/03/10 01:34:26;;;;;;;4.75;2.70;;;;;;;8.77;100.00;96731.72;5043603;28;20388;-61
2024/03/10 01:36:51;;;;;;;6.10;2.72;;;;;;;8.87;100.00;96732.97;5041511;28;20534;-61
2024/03/10 01:39:16;;;;;;;4.57;2.30;;;;;;;8.90;100.00;96719.00;5043256;28;20095;-61
2024/03/10 01:41:42;;;;;;;3.25;2.20;;;;;;;8.95;100.00;96714.50;5043574;28;20029;-61
2024/03/10 01:44:07;;;;;;;5.05;2.25;;;;;;;9.05;100.00;96713.03;5043159;28;20021;-62
2024/03/10 01:46:36;;;;;;;4.10;2.10;;;;;;;8.99;100.00;96714.84;5038296;28;20036;-61
2024/03/10 01:49:03;;;;;;;4.18;2.17;;;;;;;9.00;100.00;96708.38;5042757;28;20024;-62
2024/03/10 01:51:29;;;;;;;4.50;2.30;;;;;;;8.94;100.00;96702.09;5048135;28;20021;-62
2024/03/10 01:53:57;;;;;;;5.57;2.42;;;;;;;8.91;100.00;96701.75;5050689;28;20124;-61
2024/03/10 01:56:25;;;;;;;4.05;2.40;;;;;;;8.83;100.00;96699.44;5048996;28;20024;-61
2024/03/10 01:58:53;;;;;;;5.70;2.42;;;;;;;8.73;100.00;96700.09;5047725;28;20021;-62
2024/03/10 02:01:21;;;;;;;5.65;3.00;;;;;;;8.69;100.00;96694.38;5038907;28;20049;-61
2024/03/10 02:03:49;;;;;;;4.32;2.55;;;;;;;8.66;100.00;96689.47;5042424;28;20024;-61
2024/03/10 02:06:15;;;;;;;3.67;2.20;;;;;;;8.61;100.00;96694.75;5043812;28;20099;-61
2024/03/10 02:08:41;;;;;;;3.67;1.90;;;;;;;8.57;100.00;96682.84;5048184;28;20036;-61
2024/03/10 02:11:09;;;;;;;4.45;2.40;;;;;;;8.61;100.00;96681.28;5050548;28;20021;-61
2024/03/10 02:13:36;;;;;;;3.38;2.10;;;;;;;8.48;100.00;96684.28;5050004;28;20100;-62
2024/03/10 02:16:06;;;;;;;3.75;1.98;;;;;;;8.43;100.00;96681.50;5047560;28;20115;-62
2024/03/10 02:18:34;;;;;;;3.03;1.85;;;;;;;8.37;100.00;96685.94;5045049;28;20369;-62
2024/03/10 02:21:02;;;;;;;3.33;2.03;;;;;;;8.31;100.00;96679.66;5044713;28;20052;-61
2024/03/10 02:23:56;;;;;;;3.47;1.80;;;;;;;8.29;100.00;96679.06;5043586;28;20033;-62
2024/03/10 02:26:28;;;;;;;2.40;1.55;;;;;;;8.26;100.00;96673.34;5040490;28;20033;-62
2024/03/10 02:48:03;;;;;;;4.25;1.73;;;;;;;8.33;100.00;96636.28;5045541;28;20071;-62
2024/03/10 02:50:28;;;;;;;3.92;2.00;;;;;;;8.33;100.00;96638.97;5042448;28;20022;-61
2024/03/10 02:52:53;;;;;;;4.35;2.08;;;;;;;8.30;100.00;96634.91;5043121;28;20040;-61
2024/03/10 02:55:19;;;;;;;4.05;1.90;;;;;;;8.32;100.00;96637.38;5045870;28;20036;-62
2024/03/10 02:57:47;;;;;;;4.38;2.03;;;;;;;8.32;100.00;96634.66;5044001;28;20111;-62
2024/03/10 03:00:15;;;;;;;6.05;1.98;;;;;;;8.43;100.00;96622.22;5044859;28;20025;-62
2024/03/10 03:02:41;;;;;;;2.60;1.40;;;;;;;8.44;100.00;96615.78;5048654;28;20037;-62
2024/03/10 03:05:07;;;;;;;2.95;1.65;;;;;;;8.43;100.00;96612.25;5049891;28;20025;-62
2024/03/10 03:07:33;;;;;;;3.60;1.90;;;;;;;8.39;100.00;96610.28;5043054;28;20025;-62
2024/03/10 03:09:59;;;;;;;4.28;2.22;;;;;;;8.33;100.00;96609.34;5053468;28;20013;-62
2024/03/10 03:12:24;;;;;;;3.40;1.80;;;;;;;8.35;100.00;96612.63;5043056;28;20064;-62
2024/03/10 03:14:50;;;;;;;3.70;1.63;;;;;;;8.38;100.00;96620.22;5053016;28;20044;-62
2024/03/10 03:17:15;;;;;;;3.70;2.08;;;;;;;8.46;100.00;96613.66;5048646;28;20452;-62
2024/03/10 03:19:42;;;;;;;3.30;2.00;;;;;;;8.47;100.00;96616.09;5051662;28;20017;-61
2024/03/10 03:22:07;;;;;;;7.75;2.63;;;;;;;8.46;100.00;96617.19;5045468;28;20025;-62
2024/03/10 03:24:32;;;;;;;3.25;1.70;;;;;;;8.52;100.00;96607.31;5038728;28;20465;-62
2024/03/10 03:26:58;;;;;;;4.68;2.00;;;;;;;8.40;100.00;96601.16;5046613;28;20025;-62
2024/03/10 03:29:23;;;;;;;3.42;1.70;;;;;;;8.41;100.00;96611.69;5036280;28;20029;-62
2024/03/10 03:31:49;;;;;;;3.55;1.98;;;;;;;8.33;100.00;96612.88;5050513;28;20537;-61
2024/03/10 03:34:19;;;;;;;2.47;1.50;;;;;;;8.27;100.00;96596.88;5041736;28;20540;-62
2024/03/10 03:36:44;;;;;;;6.15;2.20;;;;;;;8.26;100.00;96603.31;5052285;28;20095;-62
2024/03/10 03:39:11;;;;;;;3.25;1.85;;;;;;;8.09;100.00;96577.16;5044707;28;20021;-62
2024/03/10 03:41:36;;;;;;;5.57;1.95;;;;;;;8.04;100.00;96578.94;5048492;28;20092;-62
2024/03/10 03:44:04;;;;;;;4.13;2.13;;;;;;;7.97;100.00;96578.28;5046673;28;20166;-62
2024/03/10 03:46:29;;;;;;;2.63;1.58;;;;;;;7.87;100.00;96592.38;5047801;28;20029;-62
2024/03/10 03:48:55;;;;;;;2.88;1.63;;;;;;;7.79;100.00;96592.75;5049581;28;20037;-62
2024/03/10 03:51:20;;;;;;;3.17;1.88;;;;;;;7.89;100.00;96592.97;5045367;28;20021;-62
2024/03/10 03:53:46;;;;;;;5.80;1.98;;;;;;;7.90;100.00;96594.59;5047514;28;20047;-62
2024/03/10 03:56:11;;;;;;;3.63;1.88;;;;;;;7.77;100.00;96584.09;5044299;28;20036;-62
2024/03/10 03:58:37;;;;;;;4.50;1.77;;;;;;;7.59;100.00;96572.44;5050425;28;20365;-62
2024/03/10 04:01:04;;;;;;;4.68;2.00;;;;;;;7.62;100.00;96577.38;5052690;28;20529;-62
2024/03/10 04:03:30;;;;;;;3.63;1.92;;;;;;;7.52;100.00;96566.41;5051196;28;20460;-62
2024/03/10 04:05:55;;;;;;;2.85;1.60;;;;;;;7.58;100.00;96554.69;5047380;28;20036;-62
2024/03/10 04:08:21;;;;;;;4.07;1.63;;;;;;;7.52;100.00;96552.13;5046604;28;20021;-62
2024/03/10 04:10:47;;;;;;;3.00;1.77;;;;;;;7.60;100.00;96544.50;5045141;28;20457;-62
2024/03/10 04:13:13;;;;;;;3.58;1.65;;;;;;;7.57;100.00;96536.91;5048981;28;20048;-62
2024/03/10 04:15:39;;;;;;;2.92;1.80;;;;;;;7.73;100.00;96537.19;5042862;28;20419;-62
2024/03/10 04:18:04;;;;;;;2.67;1.65;;;;;;;7.63;100.00;96527.88;5093491;22;20471;-75
2024/03/10 04:20:34;;;;;;;3.35;2.08;;;;;;;7.62;100.00;96533.47;5065060;28;20197;-75
2024/03/10 04:23:00;;;;;;;2.35;1.63;;;;;;;7.45;100.00;96506.53;5080740;28;20399;-76
2024/03/10 04:25:25;;;;;;;2.95;1.65;;;;;;;7.50;100.00;96498.56;5082831;28;20203;-75
2024/03/10 04:27:52;;;;;;;3.97;1.40;;;;;;;7.42;100.00;96496.25;5081570;28;20025;-75
2024/03/10 04:30:19;;;;;;;4.60;1.95;;;;;;;7.35;100.00;96498.28;5065964;28;20040;-75
2024/03/10 04:32:44;;;;;;;3.17;1.77;;;;;;;7.28;100.00;96489.50;5065784;28;20278;-76
2024/03/10 04:35:10;;;;;;;3.28;1.50;;;;;;;7.21;100.00;96490.47;5087363;28;20035;-76
2024/03/10 04:37:35;;;;;;;2.80;1.40;;;;;;;7.16;100.00;96471.56;5064597;28;20327;-77
2024/03/10 04:40:01;;;;;;;3.88;1.67;;;;;;;7.19;100.00;96475.63;5067660;28;20023;-76
2024/03/10 04:42:26;;;;;;;4.78;1.75;;;;;;;7.34;100.00;96497.47;5079951;28;20032;-75
2024/03/10 04:44:52;;;;;;;2.72;1.38;;;;;;;7.20;100.00;96480.78;5092880;28;20330;-75
2024/03/10 04:47:17;;;;;;;2.60;1.50;;;;;;;7.23;100.00;96500.97;5072010;28;20092;-76
2024/03/10 04:49:43;;;;;;;2.20;1.40;;;;;;;7.14;100.00;96486.28;5086814;28;20085;-77
2024/03/10 04:52:08;;;;;;;4.65;1.55;;;;;;;7.09;100.00;96502.31;5086492;28;20032;-76
2024/03/10 04:54:34;;;;;;;2.75;1.40;;;;;;;7.10;100.00;96510.16;5087129;28;20100;-75
2024/03/10 04:57:00;;;;;;;3.08;1.63;;;;;;;7.06;100.00;96511.69;5088626;28;20020;-76
2024/03/10 04:59:25;;;;;;;3.55;1.75;;;;;;;6.92;100.00;96505.75;5064483;28;20025;-76
2024/03/10 05:01:56;;;;;;;3.05;1.60;;;;;;;6.87;100.00;96492.22;5082590;28;20044;-76
2024/03/10 05:04:22;;;;;;;2.90;1.60;;;;;;;6.93;100.00;96504.69;5071763;28;20029;-77
2024/03/10 05:06:48;;;;;;;4.03;1.95;;;;;;;6.89;100.00;96498.16;5071854;28;20066;-76
2024/03/10 05:09:13;;;;;;;2.78;1.55;;;;;;;6.85;100.00;96488.13;5069144;28;20111;-75
2024/03/10 05:11:39;;;;;;;3.83;1.80;;;;;;;6.97;100.00;96488.91;5065905;28;20051;-76
2024/03/10 05:14:05;;;;;;;4.43;2.08;;;;;;;7.08;100.00;96508.75;5063619;28;20113;-76
2024/03/10 05:16:30;;;;;;;3.30;1.70;;;;;;;6.93;100.00;96495.81;5067595;28;20212;-75
2024/03/10 05:18:56;;;;;;;3.40;1.58;;;;;;;6.99;100.00;96508.28;5068840;28;20293;-76
2024/03/10 05:21:22;;;;;;;3.85;1.95;;;;;;;7.06;100.00;96510.88;5085652;28;20102;-76
2024/03/10 05:23:47;;;;;;;2.33;1.20;;;;;;;7.07;100.00;96520.56;5064384;28;20201;-76
2024/03/10 05:26:12;;;;;;;3.50;1.80;;;;;;;7.05;100.00;96510.06;5070712;28;20019;-76
2024/03/10 05:28:38;;;;;;;4.60;2.25;;;;;;;7.08;100.00;96514.16;5084690;28;20028;-76
2024/03/10 05:31:03;;;;;;;3.80;1.77;;;;;;;6.97;100.00;96513.13;5067422;28;20029;-76
2024/03/10 05:33:28;;;;;;;2.35;1.40;;;;;;;6.78;100.00;96485.53;5065817;28;20021;-75
2024/03/10 05:35:54;;;;;;;3.03;1.85;;;;;;;6.97;100.00;96497.81;5085989;28;20024;-75
2024/03/10 05:38:19;;;;;;;3.50;1.50;;;;;;;7.03;100.00;96479.91;5070978;28;20176;-76
2024/03/10 05:40:45;;;;;;;3.45;1.90;;;;;;;7.07;100.00;96497.16;5078343;28;20028;-76
2024/03/10 05:43:10;;;;;;;5.00;1.60;;;;;;;7.21;100.00;96500.44;5071149;28;20036;-75
2024/03/10 05:45:35;;;;;;;3.13;1.50;;;;;;;7.24;100.00;96514.22;5060313;28;20044;-76
2024/03/10 05:48:01;;;;;;;2.28;1.50;;;;;;;7.16;100.00;96482.31;5087116;28;20023;-76
2024/03/10 05:50:26;;;;;;;4.45;1.40;;;;;;;7.18;100.00;96490.16;5065139;28;20031;-78
2024/03/10 05:52:52;;;;;;;2.97;1.52;;;;;;;7.25;100.00;96502.38;5061644;28;20227;-80
2024/03/10 05:55:18;;;;;;;3.20;1.38;;;;;;;7.08;100.00;96504.19;5059711;28;20161;-80
2024/03/10 05:57:45;;;;;;;3.08;1.63;;;;;;;6.93;100.00;96503.88;5066667;28;20043;-79
2024/03/10 06:00:16;;;;;;;1.88;1.27;;;;;;;7.03;100.00;96512.16;5065327;28;20081;-79
2024/03/10 06:02:45;;;;;;;3.30;1.88;;;;;;;7.11;100.00;96530.59;5072418;28;20047;-79
2024/03/10 06:05:14;;;;;;;4.90;2.17;;;;;;;6.98;100.00;96537.06;5072628;28;20020;-78
2024/03/10 06:07:43;;;;;;;2.80;1.48;;;;;;;6.94;100.00;96549.34;5064368;28;20083;-79
2024/03/10 06:10:10;;;;;;;2.97;1.50;;;;;;;6.93;100.00;96558.44;5067639;28;20043;-79
2024/03/10 06:12:37;;;;;;;4.05;1.70;;;;;;;6.90;100.00;96575.06;5065085;28;20046;-79
2024/03/10 06:15:03;;;;;;;4.32;1.67;;;;;;;6.96;100.00;96562.53;5072857;28;20021;-79
2024/03/10 06:17:33;;;;;;;3.70;1.70;;;;;;;6.92;100.00;96542.56;5058184;28;20029;-79
2024/03/10 06:25:29;;;;;;;5.40;2.03;;;;;;;7.07;100.00;96553.63;5079810;28;20035;-81
2024/03/10 06:27:58;;;;;;;3.67;1.90;;;;;;;7.09;100.00;96545.34;5070647;28;20028;-82
2024/03/10 06:30:25;;;;;;;2.85;1.63;;;;;;;7.17;100.00;96553.03;5070317;28;20033;-82
2024/03/10 06:32:50;;;;;;;2.80;1.58;;;;;;;7.19;100.00;96559.00;5062280;28;20251;-84
2024/03/10 06:35:17;;;;;;;2.83;1.73;;;;;;;7.05;100.00;96523.50;5067078;28;20091;-84
2024/03/10 06:37:44;;;;;;;3.35;1.52;;;;;;;7.27;100.00;96515.59;5073826;28;20024;-82
2024/03/10 06:40:10;;;;;;;3.08;1.55;;;;;;;7.48;100.00;96514.13;5076638;28;20027;-83
2024/03/10 06:42:36;;;;;;;2.83;1.45;;;;;;;7.39;100.00;96480.59;5068768;28;20048;-83
2024/03/10 06:45:04;;;;;;;2.83;1.80;;;;;;;7.60;100.00;96531.06;5077640;28;20015;-83
2024/03/10 06:47:29;;;;;;;1.80;1.08;;;;;;;7.50;100.00;96492.38;5070411;28;20096;-86
2024/03/10 06:49:55;;;;;;;3.38;1.50;;;;;;;7.50;100.00;96495.06;5074583;28;20066;-83
2024/03/10 06:52:20;;;;;;;2.33;1.40;;;;;;;7.65;100.00;96514.16;5072880;28;20020;-68
2024/03/10 06:54:47;;;;;;;4.35;1.40;;;;;;;7.62;100.00;96502.03;5084360;28;20024;-74
2024/03/10 06:57:12;;;;;;;2.47;1.25;;;;;;;7.74;100.00;96520.00;5084233;28;20033;-68
2024/03/10 06:59:38;;;;;;;5.60;1.10;;;;;;;7.82;100.00;96508.81;5089095;28;20085;-82
2024/03/10 07:02:04;;;;;;;2.08;1.23;;;;;;;7.81;100.00;96493.75;5067420;28;20020;-76
2024/03/10 07:04:31;;;;;;;3.70;1.25;;;;;;;7.96;100.00;96495.88;5068243;28;20032;-77
2024/03/10 07:06:57;;;;;;;2.85;1.60;;;;;;;7.95;100.00;96467.31;5073302;28;20036;-77
2024/03/10 07:09:22;;;;;;;2.92;1.30;;;;;;;8.24;100.00;96498.50;5079852;28;20027;-77
2024/03/10 07:11:47;;;;;;;2.53;1.40;;;;;;;8.20;100.00;96493.84;5072184;28;20025;-77
2024/03/10 07:14:14;;;;;;;2.40;1.20;;;;;;;8.29;100.00;96500.47;5066970;28;20247;-77
2024/03/10 07:16:47;;;;;;;2.35;1.20;;;;;;;8.28;100.00;96493.47;5067761;28;20017;-76
2024/03/10 07:19:13;;;;;;;1.90;0.90;;;;;;;8.30;100.00;96497.50;5062523;28;20020;-77
2024/03/10 07:21:38;;;;;;;2.08;1.05;;;;;;;8.33;100.00;96490.81;5066059;28;20043;-79
2024/03/10 07:24:04;;;;;;;1.65;0.93;;;;;;;8.27;100.00;96489.09;5066032;28;20035;-77
2024/03/10 07:26:33;;;;;;;3.08;1.02;;;;;;;8.26;100.00;96487.50;5064894;28;20070;-79
2024/03/10 07:28:59;;;;;;;1.95;1.20;;;;;;;8.22;100.00;96497.09;5071563;28;20028;-80
2024/03/10 07:31:26;;;;;;;3.08;1.50;;;;;;;8.28;100.00;96494.25;5069376;28;20263;-81
2024/03/10 07:33:53;;;;;;;6.22;3.30;;;;;;;8.30;100.00;96496.69;5066360;28;20220;-80
2024/03/10 07:36:18;;;;;;;6.20;4.55;;;;;;;8.35;100.00;96477.91;5071681;28;20031;-81
2024/03/10 07:38:44;;;;;;;4.20;2.78;;;;;;;8.26;100.00;96474.03;5067899;28;20028;-81
2024/03/10 07:41:10;;;;;;;6.35;2.90;;;;;;;8.31;100.00;96488.38;5064214;28;20044;-69
2024/03/10 07:43:36;;;;;;;4.53;2.70;;;;;;;8.17;100.00;96470.91;5081132;28;20031;-69
2024/03/10 07:46:02;;;;;;;3.58;2.20;;;;;;;7.99;100.00;96466.59;5067599;28;20032;-73
2024/03/10 07:48:27;;;;;;;3.92;1.95;;;;;;;8.17;100.00;96459.31;5065314;28;20024;-78
2024/03/10 07:50:53;;;;;;;4.30;2.30;;;;;;;8.35;100.00;96478.72;5087631;28;20032;-83
2024/03/10 07:53:18;;;;;;;4.50;2.10;;;;;;;8.51;100.00;96470.91;5072654;28;20091;-82
2024/03/10 07:55:43;;;;;;;3.63;2.08;;;;;;;8.35;100.00;96449.09;5068442;28;20021;-80
2024/03/10 07:58:09;;;;;;;4.22;2.20;;;;;;;8.57;100.00;96437.59;5071302;28;20034;-81
2024/03/10 08:00:34;;;;;;;3.78;2.08;;;;;;;8.88;100.00;96438.81;5073539;28;20100;-79
2024/03/10 08:02:59;;;;;;;3.30;1.77;;;;;;;9.30;100.00;96451.72;5071796;28;20087;-80
2024/03/10 08:05:29;;;;;;;5.25;3.67;;;;;;;9.45;100.00;96451.03;5067607;28;20017;-80
2024/03/10 08:07:55;;;;;;;3.00;1.80;;;;;;;9.63;100.00;96471.47;5081710;28;20028;-80
2024/03/10 08:10:21;;;;;;;3.95;2.17;;;;;;;9.78;100.00;96476.22;5066083;28;20024;-78
2024/03/10 08:12:47;;;;;;;4.05;2.47;;;;;;;10.11;100.00;96477.84;5060916;28;20028;-81
2024/03/10 08:15:14;;;;;;;5.53;3.80;;;;;;;10.79;100.00;96471.88;5067237;28;20099;-80
2024/03/10 08:17:39;;;;;;;4.25;2.67;;;;;;;11.53;100.00;96493.31;5064121;28;20192;-78
2024/03/10 08:20:06;;;;;;;3.45;2.03;;;;;;;12.19;100.00;96467.44;5071682;28;20023;-78
2024/03/10 08:22:33;;;;;;;2.15;1.50;;;;;;;13.42;95.19;96495.19;5061064;28;20064;-70
2024/03/10 08:24:59;;;;;;;2.63;1.65;;;;;;;14.28;94.52;96494.91;5086434;28;20035;-78
2024/03/10 08:27:24;;;;;;;2.25;1.63;;;;;;;14.71;88.32;96497.88;5063549;28;20095;-84
2024/03/10 08:29:49;;;;;;;3.60;2.00;;;;;;;14.72;90.49;96510.38;5068715;28;20024;-80
2024/03/10 08:32:14;;;;;;;6.00;4.35;;;;;;;14.63;86.06;96499.31;5066007;28;20027;-81
2024/03/10 08:34:40;;;;;;;5.80;2.30;;;;;;;14.88;87.93;96503.69;5062502;28;20245;-82
2024/03/10 08:37:06;;;;;;;3.35;1.80;;;;;;;13.94;81.56;96458.47;5071806;28;20058;-81
2024/03/10 08:39:32;;;;;;;1.88;1.38;;;;;;;14.12;83.81;96481.47;5075098;28;20027;-81
2024/03/10 08:41:57;;;;;;;3.85;1.48;;;;;;;13.99;82.74;96450.28;5078844;28;20029;-79
2024/03/10 08:44:22;;;;;;;1.55;0.93;;;;;;;13.95;76.39;96451.94;5076545;28;20024;-78
2024/03/10 08:46:48;;;;;;;2.92;1.27;;;;;;;13.84;74.40;96455.00;5050315;28;20051;-79
2024/03/10 08:49:13;;;;;;;2.30;1.00;;;;;;;14.37;80.78;96457.88;5061985;28;20029;-78
2024/03/10 08:51:41;;;;;;;4.18;1.40;;;;;;;14.67;77.42;96454.06;5063392;28;20391;-80
2024/03/10 08:54:07;;;;;;;1.98;1.30;;;;;;;14.96;75.34;96445.91;5066125;28;20020;-79
2024/03/10 08:56:39;;;;;;;2.35;1.20;;;;;;;14.99;70.79;96442.59;5067606;28;20071;-81
2024/03/10 08:59:05;;;;;;;1.20;0.70;;;;;;;14.29;71.32;96436.72;5057100;28;20216;-74
2024/03/10 09:01:31;;;;;;;2.50;1.00;;;;;;;14.26;74.73;96410.91;5064485;28;20021;-83
2024/03/10 09:04:02;;;;;;;3.45;1.20;;;;;;;14.62;76.89;96425.03;5062541;28;20084;-80
2024/03/10 09:06:27;;;;;;;2.42;1.17;;;;;;;14.81;77.47;96443.34;5072573;28;20016;-80
2024/03/10 09:08:53;;;;;;;2.35;1.20;;;;;;;14.94;78.67;96433.69;5065230;28;20124;-80
2024/03/10 09:11:18;;;;;;;2.88;1.75;;;;;;;14.73;80.80;96424.91;5071257;28;20024;-81
2024/03/10 09:13:45;;;;;;;4.32;2.30;;;;;;;14.40;82.92;96470.91;5065353;28;20253;-79
2024/03/10 09:16:12;;;;;;;3.42;2.10;;;;;;;14.41;85.14;96437.97;5068873;28;20040;-78
2024/03/10 09:18:37;;;;;;;3.05;1.75;;;;;;;14.46;86.28;96426.22;5063880;28;20028;-77
2024/03/10 09:21:03;;;;;;;3.15;1.67;;;;;;;14.38;85.78;96399.63;5084456;28;20157;-79
2024/03/10 09:23:31;;;;;;;4.45;1.52;;;;;;;14.77;87.01;96388.66;5065653;28;20024;-77
2024/03/10 09:25:57;;;;;;;2.23;1.33;;;;;;;14.71;88.60;96395.25;5056597;28;20358;-78
2024/03/10 09:28:24;;;;;;;2.33;1.30;;;;;;;14.92;83.62;96425.78;5062314;28;20384;-83
2024/03/10 09:30:49;;;;;;;1.63;1.20;;;;;;;15.43;82.88;96449.69;5062439;28;20062;-81
2024/03/10 09:33:16;;;;;;;2.05;1.35;;;;;;;16.62;79.19;96453.09;5067656;28;20246;-81
2024/03/10 09:35:43;;;;;;;2.00;1.30;;;;;;;17.53;73.90;96454.38;5067787;28;20070;-73
2024/03/10 09:38:08;;;;;;;2.50;1.63;;;;;;;18.22;70.17;96469.84;5067490;28;20020;-81
2024/03/10 09:40:33;;;;;;;1.95;1.33;;;;;;;18.52;68.87;96490.19;5065737;28;20034;-70
2024/03/10 09:43:04;;;;;;;2.67;1.40;;;;;;;17.08;68.49;96503.34;5084394;28;20017;-74
2024/03/10 09:45:37;;;;;;;2.38;1.60;;;;;;;17.66;69.78;96504.72;5081065;28;20232;-74
2024/03/10 09:48:05;;;;;;;2.50;1.48;;;;;;;17.52;68.42;96510.97;5075538;28;20319;-74
2024/03/10 09:50:31;;;;;;;3.28;1.60;;;;;;;18.13;66.35;96500.69;5075998;28;20032;-73
2024/03/10 09:52:58;;;;;;;2.53;1.60;;;;;;;18.16;64.37;96489.13;5057859;28;20027;-73
2024/03/10 09:55:24;;;;;;;3.25;1.63;;;;;;;18.44;65.51;96494.47;5062658;28;20016;-73
2024/03/10 09:57:53;;;;;;;2.92;1.10;;;;;;;17.71;64.88;96499.94;5081745;28;20047;-73
2024/03/10 10:00:24;;;;;;;2.33;1.33;;;;;;;17.16;62.91;96493.66;5078746;28;20357;-74
2024/03/10 10:02:58;;;;;;;2.70;1.63;;;;;;;16.93;64.43;96468.16;5073138;28;20298;-72
2024/03/10 10:05:26;;;;;;;2.20;1.25;;;;;;;16.44;62.78;96470.31;5078293;28;20017;-74
2024/03/10 10:07:54;;;;;;;1.63;1.05;;;;;;;15.51;62.40;96461.84;5082960;28;20192;-74
2024/03/10 10:10:22;;;;;;;1.87;0.97;;;;;;;15.53;62.60;96459.63;5084700;28;20020;-74
2024/03/10 10:12:49;;;;;;;1.85;0.82;;;;;;;15.03;64.19;96423.75;5082872;28;20028;-74
2024/03/10 10:15:21;;;;;;;2.30;1.13;;;;;;;15.43;63.63;96446.97;5080856;28;20028;-72
2024/03/10 10:20:28;;;;;;;1.88;1.10;;;;;;;15.20;64.56;96483.22;5037324;28;20042;-74
2024/03/10 10:23:00;;;;;;;1.52;0.93;;;;;;;15.44;66.20;96475.84;5042877;28;20089;-74
2024/03/10 10:25:27;;;;;;;1.98;1.10;;;;;;;15.34;66.36;96467.78;5040773;28;20029;-74
2024/03/10 10:27:54;;;;;;;1.38;0.80;;;;;;;15.06;65.27;96453.97;5039506;28;20032;-74
2024/03/10 10:30:29;;;;;;;1.58;1.00;;;;;;;14.78;65.10;96441.19;5049361;28;20096;-74
2024/03/10 10:33:04;;;;;;;1.33;1.00;;;;;;;14.61;65.03;96450.59;5042149;28;20032;-74
2024/03/10 10:35:39;;;;;;;2.22;1.02;;;;;;;14.90;64.51;96453.28;5036472;28;20051;-74
2024/03/10 10:38:15;;;;;;;1.65;1.00;;;;;;;15.17;64.16;96445.63;5047736;28;20256;-74
2024/03/10 10:40:44;;;;;;;1.73;0.90;;;;;;;15.17;63.67;96446.47;5044681;28;20043;-75
2024/03/10 10:43:12;;;;;;;2.50;1.00;;;;;;;15.19;63.38;96433.34;5044459;28;20317;-74
2024/03/10 10:45:37;;;;;;;1.63;1.10;;;;;;;15.88;62.81;96438.47;5041957;28;20198;-76
2024/03/10 10:48:07;;;;;;;1.50;0.90;;;;;;;16.00;63.15;96434.16;5049331;28;20036;-75
2024/03/10 10:50:33;;;;;;;;;;;;;;;16.02;63.49;96438.53;5050896;28;20071;-76
2024/03/10 10:52:59;;;;;;;2.40;1.30;;;;;;;15.97;64.30;96433.97;5046977;28;20004;-76
2024/03/10 10:55:27;;;;;;;1.63;1.00;;;;;;;15.97;63.24;96453.84;5049427;28;20135;-76
2024/03/10 10:57:57;;;;;;;1.48;0.80;;;;;;;16.07;62.70;96441.19;5045817;28;20051;-76
2024/03/10 11:00:27;;;;;;;1.90;1.00;;;;;;;16.09;63.73;96452.63;5047862;28;20051;-74
2024/03/10 11:03:05;;;;;;;2.72;1.23;;;;;;;16.86;63.81;96450.22;5043916;28;20056;-76
2024/03/10 11:05:30;;;;;;;1.55;1.00;;;;;;;17.78;61.80;96433.88;5051056;28;20025;-75
2024/03/10 11:07:55;;;;;;;1.80;0.88;;;;;;;18.54;61.08;96441.41;5032725;28;20049;-74
2024/03/10 11:10:45;;;;;;;1.10;0.80;;;;;;;17.50;57.74;96444.88;5049942;28;20032;-75
2024/03/10 11:13:12;;;;;;;1.30;0.80;;;;;;;17.54;58.91;96442.31;5044793;28;20261;-74
2024/03/10 11:15:37;;;;;;;2.40;1.00;;;;;;;16.90;59.73;96439.53;5051514;28;20029;-74
2024/03/10 11:18:25;;;;;;;3.45;1.13;;;;;;;16.44;60.04;96419.28;5040035;28;20021;-73
2024/03/10 11:20:51;;;;;;;1.25;0.90;;;;;;;15.93;61.34;96414.66;5043388;28;20025;-74
2024/03/10 11:23:36;;;;;;;1.35;0.95;;;;;;;15.66;62.09;96407.13;5050575;28;20186;-74
2024/03/10 11:26:18;;;;;;;2.03;0.90;;;;;;;15.32;63.59;96389.06;5036302;28;20021;-74
2024/03/10 11:28:51;;;;;;;1.10;0.85;;;;;;;15.62;63.83;96406.09;5050565;28;20032;-75
2024/03/10 11:31:37;;;;;;;1.45;1.00;;;;;;;15.80;66.34;96420.03;5046795;28;20235;-74
2024/03/10 11:34:04;;;;;;;2.42;1.08;;;;;;;15.68;66.80;96420.47;5043761;28;20018;-74
2024/03/10 11:36:39;;;;;;;2.00;1.10;;;;;;;15.61;67.11;96414.56;5050909;28;20029;-75
2024/03/10 11:39:19;;;;;;;1.35;0.85;;;;;;;15.50;68.04;96417.44;5043237;28;20336;-75
2024/03/10 11:41:47;;;;;;;2.50;0.90;;;;;;;15.37;67.73;96420.88;5038139;28;20110;-74
2024/03/10 11:44:13;;;;;;;1.20;0.80;;;;;;;15.05;66.23;96427.81;5052257;28;20071;-74
2024/03/10 11:46:38;;;;;;;1.88;1.10;;;;;;;14.92;69.68;96424.97;5047062;28;20062;-75
2024/03/10 11:49:04;;;;;;;2.47;1.00;;;;;;;14.92;69.76;96423.06;5049971;28;20029;-74
2024/03/10 11:51:35;;;;;;;2.05;0.98;;;;;;;14.98;69.05;96416.44;5050695;28;20124;-75
2024/03/10 11:54:03;;;;;;;1.60;0.70;;;;;;;14.86;69.84;96413.34;5049505;28;20048;-76
2024/03/10 11:56:32;;;;;;;2.53;1.20;;;;;;;15.05;72.03;96413.38;5046096;28;20070;-75
2024/03/10 11:58:57;;;;;;;2.33;1.30;;;;;;;15.00;73.42;96418.91;5040542;28;20028;-75
2024/03/10 12:01:24;;;;;;;1.20;0.80;;;;;;;15.03;74.57;96418.31;5044164;28;20017;-75